sensor_id;sensor_type;location;lat;lon;timestamp;P1;durP1;ratioP1;P2;durP2;ratioP2
69573;SDS011;62840;52.366;5.980;2023-02-22T00:00:51;15.30;;;5.00;;
69573;SDS011;62840;52.366;5.980;2023-02-22T00:03:17;13.87;;;5.43;;
69573;SDS011;62840;52.366;5.980;2023-02-22T00:05:47;12.48;;;4.68;;
69573;SDS011;62840;52.366;5.980;2023-02-22T00:08:13;12.25;;;4.55;;
69573;SDS011;62840;52.366;5.980;2023-02-22T00:10:41;13.07;;;4.57;;
69573;SDS011;62840;52.366;5.980;2023-02-22T00:13:11;12.63;;;4.45;;
69573;SDS011;62840;52.366;5.980;2023-02-22T00:15:38;14.10;;;4.80;;
69573;SDS011;62840;52.366;5.980;2023-02-22T00:18:05;12.90;;;4.72;;
69573;SDS011;62840;52.366;5.980;2023-02-22T00:20:31;12.30;;;4.97;;
69573;SDS011;62840;52.366;5.980;2023-02-22T00:22:57;13.13;;;4.60;;
69573;SDS011;62840;52.366;5.980;2023-02-22T00:25:23;14.45;;;5.53;;
69573;SDS011;62840;52.366;5.980;2023-02-22T00:27:49;12.27;;;5.13;;
69573;SDS011;62840;52.366;5.980;2023-02-22T00:30:20;13.90;;;5.37;;
69573;SDS011;62840;52.366;5.980;2023-02-22T00:32:48;14.98;;;5.25;;
69573;SDS011;62840;52.366;5.980;2023-02-22T00:35:16;12.82;;;5.13;;
69573;SDS011;62840;52.366;5.980;2023-02-22T00:37:45;14.85;;;5.20;;
69573;SDS011;62840;52.366;5.980;2023-02-22T00:40:14;15.73;;;5.70;;
69573;SDS011;62840;52.366;5.980;2023-02-22T00:42:42;17.93;;;6.43;;
69573;SDS011;62840;52.366;5.980;2023-02-22T00:45:08;15.82;;;5.55;;
69573;SDS011;62840;52.366;5.980;2023-02-22T00:47:37;16.40;;;6.32;;
69573;SDS011;62840;52.366;5.980;2023-02-22T00:50:03;17.17;;;6.38;;
69573;SDS011;62840;52.366;5.980;2023-02-22T00:52:29;17.05;;;6.40;;
69573;SDS011;62840;52.366;5.980;2023-02-22T00:54:55;15.40;;;5.45;;
69573;SDS011;62840;52.366;5.980;2023-02-22T00:57:22;16.10;;;5.80;;
69573;SDS011;62840;52.366;5.980;2023-02-22T00:59:48;14.70;;;5.93;;
69573;SDS011;62840;52.366;5.980;2023-02-22T01:02:15;15.90;;;5.88;;
69573;SDS011;62840;52.366;5.980;2023-02-22T01:04:43;12.27;;;5.40;;
69573;SDS011;62840;52.366;5.980;2023-02-22T01:07:09;15.57;;;6.05;;
69573;SDS011;62840;52.366;5.980;2023-02-22T01:09:35;13.20;;;5.15;;
69573;SDS011;62840;52.366;5.980;2023-02-22T01:12:01;14.70;;;5.63;;
69573;SDS011;62840;52.366;5.980;2023-02-22T01:14:27;15.38;;;6.03;;
69573;SDS011;62840;52.366;5.980;2023-02-22T01:16:53;15.13;;;5.93;;
69573;SDS011;62840;52.366;5.980;2023-02-22T01:19:21;14.17;;;5.53;;
69573;SDS011;62840;52.366;5.980;2023-02-22T01:21:50;13.13;;;4.88;;
69573;SDS011;62840;52.366;5.980;2023-02-22T01:24:17;16.33;;;5.63;;
69573;SDS011;62840;52.366;5.980;2023-02-22T01:26:48;17.00;;;5.93;;
69573;SDS011;62840;52.366;5.980;2023-02-22T01:29:16;15.07;;;5.60;;
69573;SDS011;62840;52.366;5.980;2023-02-22T01:31:49;13.53;;;5.27;;
69573;SDS011;62840;52.366;5.980;2023-02-22T01:34:17;14.07;;;4.70;;
69573;SDS011;62840;52.366;5.980;2023-02-22T01:36:43;16.60;;;5.90;;
69573;SDS011;62840;52.366;5.980;2023-02-22T01:39:11;14.48;;;5.63;;
69573;SDS011;62840;52.366;5.980;2023-02-22T01:41:37;16.27;;;5.80;;
69573;SDS011;62840;52.366;5.980;2023-02-22T01:44:16;21.30;;;7.57;;
69573;SDS011;62840;52.366;5.980;2023-02-22T01:46:45;23.70;;;9.23;;
69573;SDS011;62840;52.366;5.980;2023-02-22T01:49:11;24.47;;;9.97;;
69573;SDS011;62840;52.366;5.980;2023-02-22T01:51:40;24.55;;;9.50;;
69573;SDS011;62840;52.366;5.980;2023-02-22T01:54:15;23.08;;;9.23;;
69573;SDS011;62840;52.366;5.980;2023-02-22T01:56:46;25.10;;;10.27;;
69573;SDS011;62840;52.366;5.980;2023-02-22T01:59:18;26.00;;;10.47;;
69573;SDS011;62840;52.366;5.980;2023-02-22T02:01:47;29.27;;;11.18;;
69573;SDS011;62840;52.366;5.980;2023-02-22T02:04:14;29.23;;;11.63;;
69573;SDS011;62840;52.366;5.980;2023-02-22T02:06:45;32.50;;;12.35;;
69573;SDS011;62840;52.366;5.980;2023-02-22T02:09:15;33.35;;;12.43;;
69573;SDS011;62840;52.366;5.980;2023-02-22T02:11:50;35.67;;;12.97;;
69573;SDS011;62840;52.366;5.980;2023-02-22T02:14:17;36.20;;;13.55;;
69573;SDS011;62840;52.366;5.980;2023-02-22T02:16:44;36.97;;;14.00;;
69573;SDS011;62840;52.366;5.980;2023-02-22T02:19:15;36.05;;;13.07;;
69573;SDS011;62840;52.366;5.980;2023-02-22T02:28:30;41.85;;;13.70;;
69573;SDS011;62840;52.366;5.980;2023-02-22T02:31:55;41.88;;;13.68;;
69573;SDS011;62840;52.366;5.980;2023-02-22T02:34:48;46.92;;;15.77;;
69573;SDS011;62840;52.366;5.980;2023-02-22T02:37:25;42.57;;;14.57;;
69573;SDS011;62840;52.366;5.980;2023-02-22T02:40:07;42.55;;;13.77;;
69573;SDS011;62840;52.366;5.980;2023-02-22T02:42:46;42.95;;;14.98;;
69573;SDS011;62840;52.366;5.980;2023-02-22T02:45:35;48.78;;;16.40;;
69573;SDS011;62840;52.366;5.980;2023-02-22T02:48:14;49.03;;;14.63;;
69573;SDS011;62840;52.366;5.980;2023-02-22T02:50:49;51.57;;;15.50;;
69573;SDS011;62840;52.366;5.980;2023-02-22T02:53:20;49.08;;;16.27;;
69573;SDS011;62840;52.366;5.980;2023-02-22T02:55:51;48.53;;;15.38;;
69573;SDS011;62840;52.366;5.980;2023-02-22T02:58:18;46.30;;;15.20;;
69573;SDS011;62840;52.366;5.980;2023-02-22T03:00:47;43.22;;;15.43;;
69573;SDS011;62840;52.366;5.980;2023-02-22T03:06:25;49.55;;;15.38;;
69573;SDS011;62840;52.366;5.980;2023-02-22T03:09:16;49.22;;;16.45;;
69573;SDS011;62840;52.366;5.980;2023-02-22T03:12:02;48.28;;;15.20;;
69573;SDS011;62840;52.366;5.980;2023-02-22T03:14:47;55.17;;;16.60;;
69573;SDS011;62840;52.366;5.980;2023-02-22T03:17:33;51.67;;;15.63;;
69573;SDS011;62840;52.366;5.980;2023-02-22T03:20:15;49.45;;;16.45;;
69573;SDS011;62840;52.366;5.980;2023-02-22T03:22:54;46.97;;;15.82;;
69573;SDS011;62840;52.366;5.980;2023-02-22T03:25:29;53.77;;;17.50;;
69573;SDS011;62840;52.366;5.980;2023-02-22T03:28:02;53.90;;;17.42;;
69573;SDS011;62840;52.366;5.980;2023-02-22T03:30:35;55.72;;;17.40;;
69573;SDS011;62840;52.366;5.980;2023-02-22T03:33:10;52.55;;;16.48;;
69573;SDS011;62840;52.366;5.980;2023-02-22T03:35:47;54.20;;;17.10;;
69573;SDS011;62840;52.366;5.980;2023-02-22T03:38:24;49.93;;;16.07;;
69573;SDS011;62840;52.366;5.980;2023-02-22T03:40:57;50.40;;;17.25;;
69573;SDS011;62840;52.366;5.980;2023-02-22T03:43:28;46.58;;;14.80;;
69573;SDS011;62840;52.366;5.980;2023-02-22T03:46:02;41.80;;;13.13;;
69573;SDS011;62840;52.366;5.980;2023-02-22T03:48:34;42.42;;;14.10;;
69573;SDS011;62840;52.366;5.980;2023-02-22T03:51:09;37.83;;;12.53;;
69573;SDS011;62840;52.366;5.980;2023-02-22T03:53:37;33.65;;;11.75;;
69573;SDS011;62840;52.366;5.980;2023-02-22T03:56:03;35.47;;;11.93;;
69573;SDS011;62840;52.366;5.980;2023-02-22T03:58:35;35.08;;;11.43;;
69573;SDS011;62840;52.366;5.980;2023-02-22T04:01:06;32.28;;;10.63;;
69573;SDS011;62840;52.366;5.980;2023-02-22T04:03:32;32.33;;;10.63;;
69573;SDS011;62840;52.366;5.980;2023-02-22T04:05:57;33.25;;;11.10;;
69573;SDS011;62840;52.366;5.980;2023-02-22T04:08:26;28.87;;;9.80;;
69573;SDS011;62840;52.366;5.980;2023-02-22T04:10:51;31.10;;;11.18;;
69573;SDS011;62840;52.366;5.980;2023-02-22T04:13:17;31.47;;;9.97;;
69573;SDS011;62840;52.366;5.980;2023-02-22T04:15:43;24.85;;;8.88;;
69573;SDS011;62840;52.366;5.980;2023-02-22T04:18:09;30.13;;;9.37;;
69573;SDS011;62840;52.366;5.980;2023-02-22T04:20:34;27.08;;;9.30;;
69573;SDS011;62840;52.366;5.980;2023-02-22T04:23:00;25.93;;;9.57;;
69573;SDS011;62840;52.366;5.980;2023-02-22T04:25:28;27.00;;;9.48;;
69573;SDS011;62840;52.366;5.980;2023-02-22T04:27:54;30.15;;;10.05;;
69573;SDS011;62840;52.366;5.980;2023-02-22T04:30:20;25.13;;;9.27;;
69573;SDS011;62840;52.366;5.980;2023-02-22T04:32:47;27.35;;;8.85;;
69573;SDS011;62840;52.366;5.980;2023-02-22T04:35:13;26.85;;;9.00;;
69573;SDS011;62840;52.366;5.980;2023-02-22T04:37:39;24.55;;;8.68;;
69573;SDS011;62840;52.366;5.980;2023-02-22T04:40:05;23.57;;;8.40;;
69573;SDS011;62840;52.366;5.980;2023-02-22T04:42:35;25.27;;;8.60;;
69573;SDS011;62840;52.366;5.980;2023-02-22T04:45:02;22.38;;;7.68;;
69573;SDS011;62840;52.366;5.980;2023-02-22T04:47:29;21.27;;;7.55;;
69573;SDS011;62840;52.366;5.980;2023-02-22T04:49:54;20.63;;;7.40;;
69573;SDS011;62840;52.366;5.980;2023-02-22T04:52:20;26.35;;;8.18;;
69573;SDS011;62840;52.366;5.980;2023-02-22T04:54:46;22.43;;;7.53;;
69573;SDS011;62840;52.366;5.980;2023-02-22T04:57:12;21.70;;;8.00;;
69573;SDS011;62840;52.366;5.980;2023-02-22T04:59:40;25.00;;;7.70;;
69573;SDS011;62840;52.366;5.980;2023-02-22T05:02:06;22.77;;;7.40;;
69573;SDS011;62840;52.366;5.980;2023-02-22T05:04:32;20.60;;;7.93;;
69573;SDS011;62840;52.366;5.980;2023-02-22T05:06:57;21.97;;;8.00;;
69573;SDS011;62840;52.366;5.980;2023-02-22T05:09:23;20.23;;;7.40;;
69573;SDS011;62840;52.366;5.980;2023-02-22T05:11:49;24.07;;;7.77;;
69573;SDS011;62840;52.366;5.980;2023-02-22T05:14:15;21.70;;;7.63;;
69573;SDS011;62840;52.366;5.980;2023-02-22T05:16:43;22.90;;;7.72;;
69573;SDS011;62840;52.366;5.980;2023-02-22T05:19:09;23.47;;;7.93;;
69573;SDS011;62840;52.366;5.980;2023-02-22T05:21:35;21.75;;;7.35;;
69573;SDS011;62840;52.366;5.980;2023-02-22T05:24:00;21.20;;;7.70;;
69573;SDS011;62840;52.366;5.980;2023-02-22T05:26:26;20.67;;;7.60;;
69573;SDS011;62840;52.366;5.980;2023-02-22T05:28:52;23.43;;;8.17;;
69573;SDS011;62840;52.366;5.980;2023-02-22T05:31:18;27.48;;;8.30;;
69573;SDS011;62840;52.366;5.980;2023-02-22T05:33:46;24.53;;;7.90;;
69573;SDS011;62840;52.366;5.980;2023-02-22T05:36:12;28.75;;;10.05;;
69573;SDS011;62840;52.366;5.980;2023-02-22T05:38:38;27.17;;;9.18;;
69573;SDS011;62840;52.366;5.980;2023-02-22T05:41:04;24.67;;;8.32;;
69573;SDS011;62840;52.366;5.980;2023-02-22T05:43:29;26.70;;;9.03;;
69573;SDS011;62840;52.366;5.980;2023-02-22T05:45:55;26.10;;;8.73;;
69573;SDS011;62840;52.366;5.980;2023-02-22T05:48:21;27.63;;;10.23;;
69573;SDS011;62840;52.366;5.980;2023-02-22T05:50:49;24.20;;;8.30;;
69573;SDS011;62840;52.366;5.980;2023-02-22T05:53:15;27.73;;;9.20;;
69573;SDS011;62840;52.366;5.980;2023-02-22T05:55:41;27.23;;;9.38;;
69573;SDS011;62840;52.366;5.980;2023-02-22T05:58:06;27.25;;;8.65;;
69573;SDS011;62840;52.366;5.980;2023-02-22T06:00:32;26.13;;;8.43;;
69573;SDS011;62840;52.366;5.980;2023-02-22T06:02:58;28.42;;;9.50;;
69573;SDS011;62840;52.366;5.980;2023-02-22T06:05:27;25.60;;;9.27;;
69573;SDS011;62840;52.366;5.980;2023-02-22T06:07:56;25.30;;;8.90;;
69573;SDS011;62840;52.366;5.980;2023-02-22T06:10:23;28.85;;;9.25;;
69573;SDS011;62840;52.366;5.980;2023-02-22T06:12:50;28.23;;;8.35;;
69573;SDS011;62840;52.366;5.980;2023-02-22T06:15:17;26.35;;;8.70;;
69573;SDS011;62840;52.366;5.980;2023-02-22T06:17:45;24.10;;;8.97;;
69573;SDS011;62840;52.366;5.980;2023-02-22T06:20:13;24.63;;;9.00;;
69573;SDS011;62840;52.366;5.980;2023-02-22T06:22:41;22.45;;;8.15;;
69573;SDS011;62840;52.366;5.980;2023-02-22T06:25:12;27.52;;;9.20;;
69573;SDS011;62840;52.366;5.980;2023-02-22T06:27:40;23.27;;;8.18;;
69573;SDS011;62840;52.366;5.980;2023-02-22T06:30:07;25.55;;;8.48;;
69573;SDS011;62840;52.366;5.980;2023-02-22T06:32:34;24.08;;;8.52;;
69573;SDS011;62840;52.366;5.980;2023-02-22T06:35:00;24.03;;;8.30;;
69573;SDS011;62840;52.366;5.980;2023-02-22T06:37:26;24.48;;;9.52;;
69573;SDS011;62840;52.366;5.980;2023-02-22T06:39:52;27.53;;;9.10;;
69573;SDS011;62840;52.366;5.980;2023-02-22T06:42:20;27.67;;;9.25;;
69573;SDS011;62840;52.366;5.980;2023-02-22T06:44:46;32.03;;;10.30;;
69573;SDS011;62840;52.366;5.980;2023-02-22T06:47:12;31.53;;;9.40;;
69573;SDS011;62840;52.366;5.980;2023-02-22T06:49:38;32.78;;;10.77;;
69573;SDS011;62840;52.366;5.980;2023-02-22T06:52:04;31.15;;;10.40;;
69573;SDS011;62840;52.366;5.980;2023-02-22T06:54:31;33.00;;;10.38;;
69573;SDS011;62840;52.366;5.980;2023-02-22T06:56:57;37.17;;;10.93;;
69573;SDS011;62840;52.366;5.980;2023-02-22T06:59:25;39.43;;;12.50;;
69573;SDS011;62840;52.366;5.980;2023-02-22T07:01:51;38.50;;;12.27;;
69573;SDS011;62840;52.366;5.980;2023-02-22T07:04:16;45.13;;;13.63;;
69573;SDS011;62840;52.366;5.980;2023-02-22T07:06:43;47.70;;;12.97;;
69573;SDS011;62840;52.366;5.980;2023-02-22T07:09:09;45.78;;;13.40;;
69573;SDS011;62840;52.366;5.980;2023-02-22T07:11:37;47.00;;;13.00;;
69573;SDS011;62840;52.366;5.980;2023-02-22T07:14:02;47.20;;;14.00;;
69573;SDS011;62840;52.366;5.980;2023-02-22T07:16:31;49.38;;;14.45;;
69573;SDS011;62840;52.366;5.980;2023-02-22T07:18:56;56.95;;;15.70;;
69573;SDS011;62840;52.366;5.980;2023-02-22T07:21:22;49.97;;;15.13;;
69573;SDS011;62840;52.366;5.980;2023-02-22T07:23:51;57.80;;;16.00;;
69573;SDS011;62840;52.366;5.980;2023-02-22T07:26:18;53.83;;;14.90;;
69573;SDS011;62840;52.366;5.980;2023-02-22T07:28:45;57.15;;;15.50;;
69573;SDS011;62840;52.366;5.980;2023-02-22T07:31:11;57.63;;;16.27;;
69573;SDS011;62840;52.366;5.980;2023-02-22T07:33:40;60.15;;;15.90;;
69573;SDS011;62840;52.366;5.980;2023-02-22T07:36:07;59.60;;;16.90;;
69573;SDS011;62840;52.366;5.980;2023-02-22T07:38:33;56.53;;;16.13;;
69573;SDS011;62840;52.366;5.980;2023-02-22T07:40:59;61.97;;;17.15;;
69573;SDS011;62840;52.366;5.980;2023-02-22T07:43:25;62.00;;;16.60;;
69573;SDS011;62840;52.366;5.980;2023-02-22T07:45:54;56.88;;;16.70;;
69573;SDS011;62840;52.366;5.980;2023-02-22T07:48:22;62.70;;;16.92;;
69573;SDS011;62840;52.366;5.980;2023-02-22T07:50:52;62.47;;;17.40;;
69573;SDS011;62840;52.366;5.980;2023-02-22T07:53:19;66.15;;;16.83;;
69573;SDS011;62840;52.366;5.980;2023-02-22T07:55:47;63.87;;;16.60;;
69573;SDS011;62840;52.366;5.980;2023-02-22T07:58:14;66.70;;;18.15;;
69573;SDS011;62840;52.366;5.980;2023-02-22T08:00:40;61.83;;;18.05;;
69573;SDS011;62840;52.366;5.980;2023-02-22T08:03:07;65.07;;;16.52;;
69573;SDS011;62840;52.366;5.980;2023-02-22T08:05:36;63.85;;;17.08;;
69573;SDS011;62840;52.366;5.980;2023-02-22T08:08:06;66.27;;;17.53;;
69573;SDS011;62840;52.366;5.980;2023-02-22T08:10:33;65.03;;;16.17;;
69573;SDS011;62840;52.366;5.980;2023-02-22T08:12:59;63.97;;;17.45;;
69573;SDS011;62840;52.366;5.980;2023-02-22T08:15:27;63.90;;;18.58;;
69573;SDS011;62840;52.366;5.980;2023-02-22T08:17:56;57.83;;;16.25;;
69573;SDS011;62840;52.366;5.980;2023-02-22T08:20:23;63.47;;;17.23;;
69573;SDS011;62840;52.366;5.980;2023-02-22T08:22:50;60.20;;;17.35;;
69573;SDS011;62840;52.366;5.980;2023-02-22T08:25:19;71.88;;;18.20;;
69573;SDS011;62840;52.366;5.980;2023-02-22T08:27:46;64.10;;;16.13;;
69573;SDS011;62840;52.366;5.980;2023-02-22T08:30:14;60.83;;;16.17;;
69573;SDS011;62840;52.366;5.980;2023-02-22T08:32:44;68.50;;;17.47;;
69573;SDS011;62840;52.366;5.980;2023-02-22T08:35:10;61.78;;;17.15;;
69573;SDS011;62840;52.366;5.980;2023-02-22T08:37:40;59.08;;;15.77;;
69573;SDS011;62840;52.366;5.980;2023-02-22T08:40:07;57.78;;;15.23;;
69573;SDS011;62840;52.366;5.980;2023-02-22T08:42:37;62.47;;;16.40;;
69573;SDS011;62840;52.366;5.980;2023-02-22T08:45:03;55.43;;;15.60;;
69573;SDS011;62840;52.366;5.980;2023-02-22T08:47:29;56.05;;;15.70;;
69573;SDS011;62840;52.366;5.980;2023-02-22T08:49:55;58.05;;;15.60;;
69573;SDS011;62840;52.366;5.980;2023-02-22T08:52:20;51.60;;;14.63;;
69573;SDS011;62840;52.366;5.980;2023-02-22T08:54:46;56.25;;;15.98;;
69573;SDS011;62840;52.366;5.980;2023-02-22T08:57:12;52.13;;;15.70;;
69573;SDS011;62840;52.366;5.980;2023-02-22T08:59:41;53.13;;;14.43;;
69573;SDS011;62840;52.366;5.980;2023-02-22T09:02:09;47.90;;;14.45;;
69573;SDS011;62840;52.366;5.980;2023-02-22T09:04:39;46.97;;;14.52;;
69573;SDS011;62840;52.366;5.980;2023-02-22T09:07:05;47.53;;;12.40;;
69573;SDS011;62840;52.366;5.980;2023-02-22T09:09:31;42.40;;;13.68;;
69573;SDS011;62840;52.366;5.980;2023-02-22T09:11:56;47.67;;;13.90;;
69573;SDS011;62840;52.366;5.980;2023-02-22T09:14:22;47.53;;;14.00;;
69573;SDS011;62840;52.366;5.980;2023-02-22T09:16:50;45.87;;;13.60;;
69573;SDS011;62840;52.366;5.980;2023-02-22T09:19:16;49.90;;;14.48;;
69573;SDS011;62840;52.366;5.980;2023-02-22T09:21:42;45.33;;;13.33;;
69573;SDS011;62840;52.366;5.980;2023-02-22T09:24:08;42.15;;;13.40;;
69573;SDS011;62840;52.366;5.980;2023-02-22T09:26:34;46.15;;;14.07;;
69573;SDS011;62840;52.366;5.980;2023-02-22T09:29:00;45.57;;;13.53;;
69573;SDS011;62840;52.366;5.980;2023-02-22T09:31:26;46.22;;;14.55;;
69573;SDS011;62840;52.366;5.980;2023-02-22T09:33:54;48.70;;;14.27;;
69573;SDS011;62840;52.366;5.980;2023-02-22T09:36:20;52.90;;;14.27;;
69573;SDS011;62840;52.366;5.980;2023-02-22T09:38:45;49.65;;;13.65;;
69573;SDS011;62840;52.366;5.980;2023-02-22T09:41:12;47.47;;;13.70;;
69573;SDS011;62840;52.366;5.980;2023-02-22T09:43:46;45.28;;;13.50;;
69573;SDS011;62840;52.366;5.980;2023-02-22T09:46:21;51.05;;;13.65;;
69573;SDS011;62840;52.366;5.980;2023-02-22T09:48:57;48.00;;;13.20;;
69573;SDS011;62840;52.366;5.980;2023-02-22T09:51:30;51.73;;;13.10;;
69573;SDS011;62840;52.366;5.980;2023-02-22T09:54:05;54.22;;;14.13;;
69573;SDS011;62840;52.366;5.980;2023-02-22T09:56:45;45.13;;;13.13;;
69573;SDS011;62840;52.366;5.980;2023-02-22T09:59:20;55.25;;;13.48;;
69573;SDS011;62840;52.366;5.980;2023-02-22T10:01:54;44.50;;;13.32;;
69573;SDS011;62840;52.366;5.980;2023-02-22T10:04:33;50.00;;;14.40;;
69573;SDS011;62840;52.366;5.980;2023-02-22T10:07:10;44.00;;;12.93;;
69573;SDS011;62840;52.366;5.980;2023-02-22T10:09:45;54.40;;;13.82;;
69573;SDS011;62840;52.366;5.980;2023-02-22T10:12:14;45.95;;;11.88;;
69573;SDS011;62840;52.366;5.980;2023-02-22T10:15:00;47.05;;;13.32;;
69573;SDS011;62840;52.366;5.980;2023-02-22T10:17:51;41.93;;;12.10;;
69573;SDS011;62840;52.366;5.980;2023-02-22T10:20:34;42.03;;;12.20;;
69573;SDS011;62840;52.366;5.980;2023-02-22T10:23:18;43.85;;;12.88;;
69573;SDS011;62840;52.366;5.980;2023-02-22T10:25:58;47.03;;;12.82;;
69573;SDS011;62840;52.366;5.980;2023-02-22T10:28:38;40.60;;;12.30;;
69573;SDS011;62840;52.366;5.980;2023-02-22T10:31:20;42.80;;;12.07;;
69573;SDS011;62840;52.366;5.980;2023-02-22T10:33:56;37.25;;;12.18;;
69573;SDS011;62840;52.366;5.980;2023-02-22T10:36:28;38.22;;;11.98;;
69573;SDS011;62840;52.366;5.980;2023-02-22T10:38:55;44.17;;;12.15;;
69573;SDS011;62840;52.366;5.980;2023-02-22T10:41:25;35.67;;;11.23;;
69573;SDS011;62840;52.366;5.980;2023-02-22T10:43:55;38.53;;;11.17;;
69573;SDS011;62840;52.366;5.980;2023-02-22T10:46:22;37.35;;;11.23;;
69573;SDS011;62840;52.366;5.980;2023-02-22T10:48:53;38.72;;;12.82;;
69573;SDS011;62840;52.366;5.980;2023-02-22T10:51:28;34.95;;;11.02;;
69573;SDS011;62840;52.366;5.980;2023-02-22T10:53:57;37.67;;;11.45;;
69573;SDS011;62840;52.366;5.980;2023-02-22T10:56:45;38.80;;;12.07;;
69573;SDS011;62840;52.366;5.980;2023-02-22T10:59:12;37.65;;;11.50;;
69573;SDS011;62840;52.366;5.980;2023-02-22T11:01:52;41.08;;;12.90;;
69573;SDS011;62840;52.366;5.980;2023-02-22T11:04:19;38.35;;;12.95;;
69573;SDS011;62840;52.366;5.980;2023-02-22T11:07:05;37.47;;;11.40;;
69573;SDS011;62840;52.366;5.980;2023-02-22T11:09:44;36.53;;;11.77;;
69573;SDS011;62840;52.366;5.980;2023-02-22T11:12:16;36.85;;;12.00;;
69573;SDS011;62840;52.366;5.980;2023-02-22T11:14:45;34.25;;;11.60;;
69573;SDS011;62840;52.366;5.980;2023-02-22T11:17:12;37.70;;;12.40;;
69573;SDS011;62840;52.366;5.980;2023-02-22T11:19:52;38.83;;;11.52;;
69573;SDS011;62840;52.366;5.980;2023-02-22T11:22:22;40.40;;;11.47;;
69573;SDS011;62840;52.366;5.980;2023-02-22T11:24:53;43.20;;;12.27;;
69573;SDS011;62840;52.366;5.980;2023-02-22T11:27:24;37.72;;;12.15;;
69573;SDS011;62840;52.366;5.980;2023-02-22T11:29:57;37.35;;;10.95;;
69573;SDS011;62840;52.366;5.980;2023-02-22T11:32:43;36.67;;;12.88;;
69573;SDS011;62840;52.366;5.980;2023-02-22T11:35:17;40.37;;;12.07;;
69573;SDS011;62840;52.366;5.980;2023-02-22T11:38:05;39.65;;;12.27;;
69573;SDS011;62840;52.366;5.980;2023-02-22T11:40:43;40.08;;;12.52;;
69573;SDS011;62840;52.366;5.980;2023-02-22T11:43:13;39.10;;;13.07;;
69573;SDS011;62840;52.366;5.980;2023-02-22T11:45:54;42.20;;;12.93;;
69573;SDS011;62840;52.366;5.980;2023-02-22T11:48:26;40.87;;;12.03;;
69573;SDS011;62840;52.366;5.980;2023-02-22T11:50:58;40.60;;;12.02;;
69573;SDS011;62840;52.366;5.980;2023-02-22T11:53:53;44.75;;;14.32;;
69573;SDS011;62840;52.366;5.980;2023-02-22T11:56:38;40.60;;;12.40;;
69573;SDS011;62840;52.366;5.980;2023-02-22T11:59:11;38.28;;;13.20;;
69573;SDS011;62840;52.366;5.980;2023-02-22T12:01:56;42.03;;;12.27;;
69573;SDS011;62840;52.366;5.980;2023-02-22T12:04:50;37.10;;;11.90;;
69573;SDS011;62840;52.366;5.980;2023-02-22T12:07:41;41.22;;;12.70;;
69573;SDS011;62840;52.366;5.980;2023-02-22T12:10:28;38.17;;;11.43;;
69573;SDS011;62840;52.366;5.980;2023-02-22T12:13:23;37.30;;;11.82;;
69573;SDS011;62840;52.366;5.980;2023-02-22T12:16:10;39.47;;;11.40;;
69573;SDS011;62840;52.366;5.980;2023-02-22T12:18:51;35.80;;;11.23;;
69573;SDS011;62840;52.366;5.980;2023-02-22T12:21:42;38.15;;;11.73;;
69573;SDS011;62840;52.366;5.980;2023-02-22T12:24:17;43.75;;;12.55;;
69573;SDS011;62840;52.366;5.980;2023-02-22T12:26:52;37.90;;;11.85;;
69573;SDS011;62840;52.366;5.980;2023-02-22T12:29:27;37.83;;;12.60;;
69573;SDS011;62840;52.366;5.980;2023-02-22T12:32:00;35.67;;;11.65;;
69573;SDS011;62840;52.366;5.980;2023-02-22T12:34:36;35.53;;;12.25;;
69573;SDS011;62840;52.366;5.980;2023-02-22T12:37:11;40.60;;;13.07;;
69573;SDS011;62840;52.366;5.980;2023-02-22T12:39:48;40.63;;;13.88;;
69573;SDS011;62840;52.366;5.980;2023-02-22T12:42:25;37.60;;;12.00;;
69573;SDS011;62840;52.366;5.980;2023-02-22T12:45:10;35.17;;;12.43;;
69573;SDS011;62840;52.366;5.980;2023-02-22T12:47:52;41.13;;;12.40;;
69573;SDS011;62840;52.366;5.980;2023-02-22T12:50:30;37.95;;;11.60;;
69573;SDS011;62840;52.366;5.980;2023-02-22T12:52:56;40.22;;;12.50;;
69573;SDS011;62840;52.366;5.980;2023-02-22T12:55:34;36.40;;;11.90;;
69573;SDS011;62840;52.366;5.980;2023-02-22T12:58:12;35.35;;;11.75;;
69573;SDS011;62840;52.366;5.980;2023-02-22T13:00:50;37.22;;;11.20;;
69573;SDS011;62840;52.366;5.980;2023-02-22T13:03:26;37.92;;;11.75;;
69573;SDS011;62840;52.366;5.980;2023-02-22T13:06:01;34.75;;;12.27;;
69573;SDS011;62840;52.366;5.980;2023-02-22T13:08:44;32.50;;;10.53;;
69573;SDS011;62840;52.366;5.980;2023-02-22T13:11:27;33.83;;;10.48;;
69573;SDS011;62840;52.366;5.980;2023-02-22T13:14:13;37.28;;;12.13;;
69573;SDS011;62840;52.366;5.980;2023-02-22T13:17:11;33.53;;;11.10;;
69573;SDS011;62840;52.366;5.980;2023-02-22T13:19:48;30.15;;;11.32;;
69573;SDS011;62840;52.366;5.980;2023-02-22T13:22:24;34.63;;;11.50;;
69573;SDS011;62840;52.366;5.980;2023-02-22T13:25:00;34.60;;;11.35;;
69573;SDS011;62840;52.366;5.980;2023-02-22T13:27:37;32.75;;;10.70;;
69573;SDS011;62840;52.366;5.980;2023-02-22T13:30:18;34.80;;;11.07;;
69573;SDS011;62840;52.366;5.980;2023-02-22T13:33:13;30.98;;;10.93;;
69573;SDS011;62840;52.366;5.980;2023-02-22T13:36:02;30.57;;;10.17;;
69573;SDS011;62840;52.366;5.980;2023-02-22T13:39:01;32.47;;;11.10;;
69573;SDS011;62840;52.366;5.980;2023-02-22T13:42:04;30.42;;;10.85;;
69573;SDS011;62840;52.366;5.980;2023-02-22T13:48:20;34.88;;;11.05;;
69573;SDS011;62840;52.366;5.980;2023-02-22T13:51:12;32.63;;;10.93;;
69573;SDS011;62840;52.366;5.980;2023-02-22T13:53:58;31.75;;;10.43;;
69573;SDS011;62840;52.366;5.980;2023-02-22T13:56:31;29.60;;;10.30;;
69573;SDS011;62840;52.366;5.980;2023-02-22T13:58:58;31.45;;;11.18;;
69573;SDS011;62840;52.366;5.980;2023-02-22T14:01:43;30.70;;;10.65;;
69573;SDS011;62840;52.366;5.980;2023-02-22T14:04:19;29.50;;;10.50;;
69573;SDS011;62840;52.366;5.980;2023-02-22T14:07:00;29.35;;;11.43;;
69573;SDS011;62840;52.366;5.980;2023-02-22T14:15:15;29.50;;;10.80;;
69573;SDS011;62840;52.366;5.980;2023-02-22T14:17:45;32.05;;;10.80;;
69573;SDS011;62840;52.366;5.980;2023-02-22T14:20:24;28.40;;;10.45;;
69573;SDS011;62840;52.366;5.980;2023-02-22T14:22:53;29.00;;;10.10;;
69573;SDS011;62840;52.366;5.980;2023-02-22T14:25:29;26.63;;;9.73;;
69573;SDS011;62840;52.366;5.980;2023-02-22T14:27:59;31.30;;;10.52;;
69573;SDS011;62840;52.366;5.980;2023-02-22T14:30:28;35.00;;;11.05;;
69573;SDS011;62840;52.366;5.980;2023-02-22T14:33:00;27.15;;;10.00;;
69573;SDS011;62840;52.366;5.980;2023-02-22T14:35:29;27.10;;;9.80;;
69573;SDS011;62840;52.366;5.980;2023-02-22T14:38:03;29.27;;;10.73;;
69573;SDS011;62840;52.366;5.980;2023-02-22T14:40:37;30.42;;;10.55;;
69573;SDS011;62840;52.366;5.980;2023-02-22T14:43:05;30.65;;;10.27;;
69573;SDS011;62840;52.366;5.980;2023-02-22T14:45:42;29.77;;;11.40;;
69573;SDS011;62840;52.366;5.980;2023-02-22T14:48:19;28.52;;;10.10;;
69573;SDS011;62840;52.366;5.980;2023-02-22T14:50:55;30.53;;;10.00;;
69573;SDS011;62840;52.366;5.980;2023-02-22T14:53:25;29.48;;;10.48;;
69573;SDS011;62840;52.366;5.980;2023-02-22T14:56:00;29.08;;;10.30;;
69573;SDS011;62840;52.366;5.980;2023-02-22T14:58:34;25.80;;;9.75;;
69573;SDS011;62840;52.366;5.980;2023-02-22T15:01:15;27.13;;;11.13;;
69573;SDS011;62840;52.366;5.980;2023-02-22T15:03:51;26.83;;;10.40;;
69573;SDS011;62840;52.366;5.980;2023-02-22T15:06:18;32.08;;;10.38;;
69573;SDS011;62840;52.366;5.980;2023-02-22T15:08:48;27.88;;;10.30;;
69573;SDS011;62840;52.366;5.980;2023-02-22T15:11:31;26.88;;;10.02;;